Galvin, WA

4:39 AM PST on March 05, 2015 (GMT -0800)
Scatter Creek | Change Station
CLOSE
Current Station
Personal Weather Station
Location: Rochester, WA
Elevation: 233 ft
Nearby Weather Stations

Elev 233 ft 46.83 °N, 123.03 °W | Updated 16 seconds ago

Clear
Clear
31.3 °F
Feels Like 31 °F
N
0.0
Wind Variable Wind from WNW
Gusts 0.0 mph

Today
High -- | Low -- °F
--% Chance of Precip.
Yesterday
High -- | Low -- °F
Precip. -- in
6:44 AM 6:03 PM
Full, 100% visible
Pressure 30.32 in
Visibility 9.0 miles
Clouds Clear
Windchill 31 °F
Dew Point 28 °F
Humidity 86%
Rainfall in
Snow Depth Not available.
UV 0.0 out of 12
Pollen 5.30 out of 12
Air Quality Not available.
Flu Activity Not available.
METAR KOLM 051154Z AUTO 00000KT 9SM CLR M01/M03 A3031 RMK AO2 SLP265 T10111028 10017 21033 50001

More Conditions Fewer Conditions

Pressure 30.32 in
Visibility 9.0 miles
Clouds Clear
Windchill 31 °F
Dew Point 28 °F
Humidity 86%
Rainfall in
Snow Depth Not available.
UV 0.0 out of 12
Pollen 5.30 out of 12
Air Quality Not available.
Flu Activity Not available.
METAR KOLM 051154Z AUTO 00000KT 9SM CLR M01/M03 A3031 RMK AO2 SLP265 T10111028 10017 21033 50001

More Conditions Fewer Conditions

10-Day Weather Forecast

Almanac

Astronomy

Mar. 05, 2015 Rise Set
Actual Time
Civil Twilight
Nautical Twilight
Astronomical Twilight
Moon
Length of Visible Light
Length of Day
Tomorrow will be .
, % of the Moon is Illuminated

Today's Extremes

State Highs State Lows

Community

WunderPhotos

Upload Photos

1,802,736 photos uploaded!

WunderBlogs® & News

Nearby

Air Quality

  Air Quality AQ Index Pollutant
Not available.

Snow Depth

Station Depth Elevation

Earthquake Activity

City Distance Mag. Time & Date
Minimum magnitude displayed is 2.5.

Coastal Water Temperatures

Place Temperature

Nearby Weather Stations